createdAt,value
2022-09-02T00:01:57.866Z,2.40
2022-09-02T00:04:28.715Z,2.17
2022-09-02T00:06:57.873Z,2.40
2022-09-02T00:09:27.644Z,2.47
2022-09-02T00:11:59.277Z,2.37
2022-09-02T00:14:31.418Z,2.13
2022-09-02T00:17:01.686Z,2.13
2022-09-02T00:19:31.724Z,2.23
2022-09-02T00:22:02.225Z,2.10
2022-09-02T00:24:31.710Z,1.93
2022-09-02T00:27:02.362Z,1.90
2022-09-02T00:29:31.714Z,2.30
2022-09-02T00:32:01.042Z,2.30
2022-09-02T00:34:30.195Z,2.03
2022-09-02T00:36:59.239Z,2.13
2022-09-02T00:39:28.346Z,2.00
2022-09-02T00:41:57.466Z,1.70
2022-09-02T00:44:27.915Z,1.83
2022-09-02T00:46:56.989Z,2.00
2022-09-02T00:49:28.598Z,1.93
2022-09-02T00:52:04.293Z,1.93
2022-09-02T00:54:36.538Z,1.60
2022-09-02T00:57:11.324Z,1.83
2022-09-02T00:59:48.005Z,1.87
2022-09-02T01:02:17.555Z,1.77
2022-09-02T01:04:47.495Z,1.87
2022-09-02T01:07:17.477Z,1.93
2022-09-02T01:09:46.674Z,1.80
2022-09-02T01:12:16.432Z,1.60
2022-09-02T01:14:47.474Z,1.90
2022-09-02T01:17:17.393Z,1.80
2022-09-02T01:19:51.394Z,1.77
2022-09-02T01:22:23.518Z,1.80
2022-09-02T01:24:53.253Z,1.80
2022-09-02T01:27:24.426Z,1.80
2022-09-02T01:29:54.695Z,1.90
2022-09-02T01:32:24.386Z,1.80
2022-09-02T01:34:53.517Z,1.90
2022-09-02T01:37:25.067Z,1.60
2022-09-02T01:39:54.724Z,1.80
2022-09-02T01:42:24.494Z,1.60
2022-09-02T01:44:54.650Z,1.83
2022-09-02T01:47:27.297Z,1.80
2022-09-02T01:49:57.064Z,1.50
2022-09-02T01:52:29.934Z,1.93
2022-09-02T01:54:59.624Z,1.87
2022-09-02T01:57:28.988Z,1.80
2022-09-02T01:59:58.343Z,1.80
2022-09-02T02:02:28.859Z,1.83
2022-09-02T02:04:57.977Z,1.70
2022-09-02T02:07:29.826Z,1.63
2022-09-02T02:09:58.945Z,1.60
2022-09-02T02:12:31.334Z,1.80
2022-09-02T02:15:03.652Z,2.00
2022-09-02T02:17:32.899Z,1.87
2022-09-02T02:20:02.705Z,1.80
2022-09-02T02:22:33.297Z,1.57
2022-09-02T02:25:02.554Z,1.87
2022-09-02T02:27:32.647Z,2.00
2022-09-02T02:30:06.869Z,1.70
2022-09-02T02:32:36.891Z,2.30
2022-09-02T02:35:07.280Z,1.77
2022-09-02T02:37:38.508Z,1.80
2022-09-02T02:40:09.399Z,1.97
2022-09-02T02:42:38.769Z,1.90
2022-09-02T02:45:15.194Z,1.67
2022-09-02T02:47:47.352Z,2.30
2022-09-02T02:50:20.520Z,1.80
2022-09-02T02:52:53.625Z,1.70
2022-09-02T02:55:25.296Z,2.30
2022-09-02T02:57:54.519Z,2.20
2022-09-02T03:00:26.076Z,2.50
2022-09-02T03:02:57.921Z,2.00
2022-09-02T03:05:27.790Z,2.27
2022-09-02T03:07:59.781Z,2.23
2022-09-02T03:10:29.353Z,2.60
2022-09-02T03:12:58.977Z,2.30
2022-09-02T03:15:28.616Z,2.00
2022-09-02T03:17:59.053Z,2.10
2022-09-02T03:20:28.333Z,2.40
2022-09-02T03:23:04.012Z,2.60
2022-09-02T03:25:35.910Z,2.40
2022-09-02T03:28:13.363Z,2.43
2022-09-02T03:30:43.637Z,2.20
2022-09-02T03:33:13.098Z,2.83
2022-09-02T03:35:43.785Z,3.10
2022-09-02T03:38:15.546Z,2.60
2022-09-02T03:40:45.597Z,2.67
2022-09-02T03:43:15.280Z,3.23
2022-09-02T03:45:45.036Z,2.70
2022-09-02T03:48:17.386Z,2.73
2022-09-02T03:50:48.579Z,2.60
2022-09-02T03:53:21.907Z,2.53
2022-09-02T03:55:56.895Z,2.50
2022-09-02T03:58:28.339Z,2.90
2022-09-02T04:01:00.263Z,2.70
2022-09-02T04:03:29.734Z,2.77
2022-09-02T04:05:59.393Z,3.10
2022-09-02T04:08:31.925Z,2.40
2022-09-02T04:11:07.695Z,2.90
2022-09-02T04:13:38.057Z,2.87
2022-09-02T04:16:12.011Z,3.17
2022-09-02T04:18:41.679Z,2.70
2022-09-02T04:21:13.914Z,2.83
2022-09-02T04:23:45.497Z,2.70
2022-09-02T04:26:17.770Z,3.53
2022-09-02T04:28:47.402Z,3.03
2022-09-02T04:31:19.889Z,2.80
2022-09-02T04:33:52.591Z,2.97
2022-09-02T04:36:22.712Z,2.63
2022-09-02T04:38:58.576Z,2.77
2022-09-02T04:41:32.573Z,3.03
2022-09-02T04:44:07.613Z,2.73
2022-09-02T04:46:40.924Z,3.20
2022-09-02T04:49:14.645Z,2.73
2022-09-02T04:51:45.428Z,2.53
2022-09-02T04:54:16.184Z,2.43
2022-09-02T04:56:49.488Z,2.90
2022-09-02T04:59:21.490Z,2.88
2022-09-02T05:02:06.196Z,2.95
2022-09-02T05:04:36.393Z,3.30
2022-09-02T05:07:08.636Z,2.53
2022-09-02T05:09:46.015Z,2.78
2022-09-02T05:12:15.989Z,2.70
2022-09-02T05:14:50.517Z,2.65
2022-09-02T05:17:22.326Z,3.13
2022-09-02T05:19:51.963Z,2.80
2022-09-02T05:22:21.730Z,2.88
2022-09-02T05:24:52.491Z,2.65
2022-09-02T05:27:23.771Z,3.10
2022-09-02T05:29:59.333Z,2.60
2022-09-02T05:32:32.387Z,2.72
2022-09-02T05:35:04.159Z,3.00
2022-09-02T05:37:35.940Z,3.03
2022-09-02T05:40:14.833Z,2.70
2022-09-02T05:42:45.778Z,2.53
2022-09-02T05:45:19.534Z,2.65
2022-09-02T05:47:50.565Z,2.60
2022-09-02T05:50:20.981Z,2.33
2022-09-02T05:52:52.899Z,2.25
2022-09-02T05:55:25.698Z,2.70
2022-09-02T05:57:54.999Z,2.22
2022-09-02T06:00:25.868Z,1.88
2022-09-02T06:03:01.794Z,2.60
2022-09-02T06:05:38.674Z,2.03
2022-09-02T06:08:14.639Z,2.15
2022-09-02T06:10:45.718Z,2.65
2022-09-02T06:13:21.764Z,2.53
2022-09-02T06:15:53.281Z,2.20
2022-09-02T06:18:26.694Z,2.17
2022-09-02T06:20:58.022Z,2.17
2022-09-02T06:23:32.922Z,2.67
2022-09-02T06:26:06.397Z,1.92
2022-09-02T06:28:37.264Z,2.33
2022-09-02T06:31:12.046Z,2.15
2022-09-02T06:33:42.819Z,2.10
2022-09-02T06:36:17.703Z,1.90
2022-09-02T06:38:51.059Z,1.80
2022-09-02T06:41:25.055Z,2.17
2022-09-02T06:43:57.354Z,1.90
2022-09-02T06:46:30.651Z,1.92
2022-09-02T06:49:03.607Z,1.90
2022-09-02T06:51:36.152Z,1.67
2022-09-02T06:54:08.114Z,1.90
2022-09-02T06:56:45.994Z,1.70
2022-09-02T06:59:20.825Z,1.63
2022-09-02T07:01:57.111Z,2.10
2022-09-02T07:04:44.715Z,1.70
2022-09-02T07:07:17.675Z,1.70
2022-09-02T07:09:53.909Z,2.20
2022-09-02T07:12:27.418Z,2.05
2022-09-02T07:15:01.984Z,1.38
2022-09-02T07:17:36.426Z,1.83
2022-09-02T07:20:09.105Z,1.95
2022-09-02T07:22:43.628Z,1.70
2022-09-02T07:25:16.687Z,1.90
2022-09-02T07:27:47.444Z,1.63
2022-09-02T07:30:16.910Z,2.10
2022-09-02T07:32:48.222Z,1.85
2022-09-02T07:35:18.202Z,1.73
2022-09-02T07:37:48.032Z,1.90
2022-09-02T07:40:17.533Z,1.70
2022-09-02T07:42:51.016Z,1.63
2022-09-02T07:45:22.306Z,1.88
2022-09-02T07:47:52.252Z,1.60
2022-09-02T07:50:22.991Z,1.70
2022-09-02T07:52:56.910Z,1.70
2022-09-02T07:55:28.281Z,1.45
2022-09-02T07:58:00.420Z,1.60
2022-09-02T08:00:30.435Z,1.85
2022-09-02T08:05:42.099Z,1.67
2022-09-02T08:08:11.310Z,1.40
2022-09-02T08:10:40.803Z,1.70
2022-09-02T08:13:11.670Z,1.80
2022-09-02T08:15:41.591Z,1.70
2022-09-02T08:18:12.526Z,1.80
2022-09-02T08:20:51.347Z,1.40
2022-09-02T08:23:36.303Z,1.45
2022-09-02T08:26:07.965Z,1.67
2022-09-02T08:28:39.749Z,1.38
2022-09-02T08:31:09.734Z,1.35
2022-09-02T08:33:39.878Z,1.90
2022-09-02T08:36:12.208Z,1.38
2022-09-02T08:38:41.540Z,1.38
2022-09-02T08:41:19.558Z,1.60
2022-09-02T08:43:53.116Z,1.60
2022-09-02T08:46:26.796Z,1.48
2022-09-02T08:49:00.615Z,1.13
2022-09-02T08:51:37.184Z,0.98
2022-09-02T08:54:11.609Z,1.50
2022-09-02T08:56:42.682Z,1.63
2022-09-02T08:59:15.433Z,1.30
2022-09-02T09:01:52.404Z,1.30
2022-09-02T09:04:34.896Z,1.23
2022-09-02T09:07:22.121Z,1.40
2022-09-02T09:10:05.025Z,1.38
2022-09-02T09:12:49.851Z,1.25
2022-09-02T09:15:31.950Z,1.00
2022-09-02T09:18:04.339Z,1.08
2022-09-02T09:20:36.820Z,1.30
2022-09-02T09:23:22.138Z,1.42
2022-09-02T09:25:55.530Z,1.20
2022-09-02T09:28:24.982Z,1.48
2022-09-02T09:30:56.178Z,1.10
2022-09-02T09:33:25.790Z,1.17
2022-09-02T09:35:58.978Z,1.10
2022-09-02T09:38:33.361Z,1.08
2022-09-02T09:41:17.117Z,1.00
2022-09-02T09:43:47.400Z,1.00
2022-09-02T09:46:29.216Z,1.20
2022-09-02T09:48:58.676Z,1.30
2022-09-02T09:51:28.127Z,1.40
2022-09-02T09:54:17.186Z,1.00
2022-09-02T09:56:47.156Z,1.40
2022-09-02T09:59:39.323Z,1.25
2022-09-02T10:02:21.734Z,1.20
2022-09-02T10:04:54.189Z,1.50
2022-09-02T10:07:38.177Z,1.30
2022-09-02T10:10:21.601Z,1.70
2022-09-02T10:12:53.677Z,1.63
2022-09-02T10:15:39.201Z,1.40
2022-09-02T10:18:25.596Z,1.58
2022-09-02T10:21:15.673Z,1.30
2022-09-02T10:23:52.923Z,1.13
2022-09-02T10:26:31.713Z,0.90
2022-09-02T10:29:43.427Z,1.02
2022-09-02T10:32:29.077Z,1.15
2022-09-02T10:35:13.107Z,1.30
2022-09-02T10:37:57.088Z,1.13
2022-09-02T10:40:35.476Z,1.30
2022-09-02T10:43:08.363Z,1.10
2022-09-02T10:45:44.593Z,1.10
2022-09-02T10:48:34.864Z,1.25
2022-09-02T10:51:10.443Z,1.20
2022-09-02T10:53:53.702Z,1.00
2022-09-02T10:56:26.964Z,1.40
2022-09-02T10:59:01.335Z,1.27
2022-09-02T11:01:35.002Z,1.27
2022-09-02T11:04:12.021Z,0.90
2022-09-02T11:07:01.820Z,1.17
2022-09-02T11:09:39.637Z,1.10
2022-09-02T11:12:16.878Z,1.00
2022-09-02T11:14:58.675Z,0.98
2022-09-02T11:17:36.115Z,1.13
2022-09-02T11:20:14.596Z,1.13
2022-09-02T11:22:56.198Z,1.00
2022-09-02T11:25:29.718Z,1.27
2022-09-02T11:28:14.474Z,1.00
2022-09-02T11:33:32.827Z,1.20
2022-09-02T11:36:03.146Z,1.35
2022-09-02T11:38:42.130Z,1.20
2022-09-02T11:41:35.866Z,1.05
2022-09-02T11:44:25.862Z,1.00
2022-09-02T11:47:11.523Z,0.90
2022-09-02T11:49:58.143Z,1.00
2022-09-02T11:52:37.428Z,1.15
2022-09-02T11:55:17.200Z,1.30
2022-09-02T11:57:54.755Z,1.20
2022-09-02T12:00:31.650Z,1.10
2022-09-02T12:03:40.928Z,1.40
2022-09-02T12:06:14.139Z,1.20
2022-09-02T12:09:09.959Z,1.35
2022-09-02T12:11:55.248Z,1.20
2022-09-02T12:15:08.567Z,1.00
2022-09-02T12:17:47.930Z,1.00
2022-09-02T12:20:51.616Z,1.10
2022-09-02T12:23:58.925Z,1.10
2022-09-02T12:26:32.037Z,0.90
2022-09-02T12:29:32.451Z,1.00
2022-09-02T12:32:03.271Z,1.33
2022-09-02T12:34:55.513Z,0.90
2022-09-02T12:37:56.420Z,1.20
2022-09-02T12:40:38.406Z,1.15
2022-09-02T12:43:20.730Z,1.00
2022-09-02T12:45:55.368Z,1.05
2022-09-02T12:48:38.239Z,1.27
2022-09-02T12:51:08.896Z,1.20
2022-09-02T12:53:43.429Z,1.08
2022-09-02T12:56:24.397Z,1.13
2022-09-02T12:59:02.301Z,1.35
2022-09-02T13:01:45.564Z,0.88
2022-09-02T13:04:31.856Z,1.00
2022-09-02T13:07:36.814Z,1.10
2022-09-02T13:10:39.924Z,1.30
2022-09-02T13:13:41.673Z,1.00
2022-09-02T13:16:19.372Z,1.15
2022-09-02T13:22:25.564Z,0.90
2022-09-02T13:25:14.632Z,1.02
2022-09-02T13:28:18.695Z,0.90
2022-09-02T13:31:06.554Z,1.17
2022-09-02T13:33:41.906Z,0.80
2022-09-02T13:36:13.175Z,0.90
2022-09-02T13:38:45.018Z,1.35
2022-09-02T13:41:32.903Z,0.90
2022-09-02T13:44:11.076Z,1.05
2022-09-02T13:46:49.257Z,1.10
2022-09-02T13:49:24.274Z,0.90
2022-09-02T13:51:56.756Z,0.95
2022-09-02T13:54:35.105Z,1.13
2022-09-02T13:57:06.862Z,0.88
2022-09-02T13:59:38.934Z,0.90
2022-09-02T14:02:22.246Z,0.90
2022-09-02T14:04:56.603Z,0.88
2022-09-02T14:07:32.499Z,0.95
2022-09-02T14:10:10.948Z,1.05
2022-09-02T14:12:42.813Z,1.05
2022-09-02T14:15:16.994Z,1.02
2022-09-02T14:17:47.489Z,1.17
2022-09-02T14:20:22.431Z,1.10
2022-09-02T14:22:57.090Z,1.40
2022-09-02T14:25:37.090Z,1.13
2022-09-02T14:28:13.917Z,1.00
2022-09-02T14:30:44.396Z,1.35
2022-09-02T14:33:26.389Z,1.25
2022-09-02T14:36:03.569Z,1.05
2022-09-02T14:38:37.010Z,1.25
2022-09-02T14:41:13.738Z,1.73
2022-09-02T14:43:49.500Z,1.48
2022-09-02T14:46:27.893Z,1.60
2022-09-02T14:49:02.438Z,1.40
2022-09-02T14:51:40.278Z,1.00
2022-09-02T14:54:10.427Z,1.30
2022-09-02T14:56:59.863Z,1.20
2022-09-02T14:59:29.875Z,1.08
2022-09-02T15:02:00.943Z,1.25
2022-09-02T15:04:30.184Z,1.00
2022-09-02T15:06:59.638Z,0.98
2022-09-02T15:09:29.114Z,1.10
2022-09-02T15:12:02.762Z,1.25
2022-09-02T15:14:32.395Z,1.73
2022-09-02T15:17:11.581Z,1.20
2022-09-02T15:19:41.597Z,1.17
2022-09-02T15:22:11.481Z,1.40
2022-09-02T15:24:43.661Z,1.40
2022-09-02T15:27:15.022Z,1.38
2022-09-02T15:29:46.711Z,1.60
2022-09-02T15:32:16.172Z,1.77
2022-09-02T15:34:45.717Z,1.23
2022-09-02T15:37:15.067Z,1.95
2022-09-02T15:39:44.652Z,1.92
2022-09-02T15:42:15.356Z,1.40
2022-09-02T15:44:44.537Z,1.50
2022-09-02T15:47:13.896Z,1.00
2022-09-02T15:49:43.442Z,1.20
2022-09-02T15:52:12.813Z,1.30
2022-09-02T15:54:42.172Z,1.20
2022-09-02T15:57:11.912Z,1.23
2022-09-02T15:59:42.952Z,1.30
2022-09-02T16:02:12.362Z,1.35
2022-09-02T16:04:41.973Z,1.40
2022-09-02T16:07:15.388Z,1.38
2022-09-02T16:09:46.914Z,1.05
2022-09-02T16:12:16.354Z,0.95
2022-09-02T16:14:51.322Z,1.10
2022-09-02T16:17:20.765Z,1.10
2022-09-02T16:19:50.122Z,1.13
2022-09-02T16:22:19.271Z,1.00
2022-09-02T16:24:48.521Z,0.85
2022-09-02T16:27:37.937Z,1.20
2022-09-02T16:30:09.867Z,1.10
2022-09-02T16:32:40.909Z,1.02
2022-09-02T16:35:11.539Z,1.13
2022-09-02T16:37:41.146Z,1.27
2022-09-02T16:40:13.631Z,1.02
2022-09-02T16:42:42.848Z,1.30
2022-09-02T16:45:13.440Z,1.30
2022-09-02T16:47:42.671Z,1.00
2022-09-02T16:50:12.938Z,1.30
2022-09-02T16:52:42.597Z,1.58
2022-09-02T16:55:17.949Z,1.55
2022-09-02T16:57:47.218Z,1.58
2022-09-02T17:00:18.898Z,1.50
2022-09-02T17:02:48.471Z,1.83
2022-09-02T17:05:19.057Z,1.90
2022-09-02T17:07:48.355Z,1.80
2022-09-02T17:10:17.707Z,1.77
2022-09-02T17:12:47.237Z,1.80
2022-09-02T17:15:18.150Z,2.00
2022-09-02T17:17:47.487Z,1.77
2022-09-02T17:20:17.009Z,2.10
2022-09-02T17:22:46.594Z,1.80
2022-09-02T17:25:16.193Z,1.50
2022-09-02T17:27:46.101Z,1.75
2022-09-02T17:30:16.080Z,1.70
2022-09-02T17:32:46.881Z,1.38
2022-09-02T17:35:17.940Z,1.40
2022-09-02T17:37:48.686Z,1.73
2022-09-02T17:40:35.869Z,1.70
2022-09-02T17:43:05.191Z,1.80
2022-09-02T17:45:35.633Z,1.80
2022-09-02T17:48:34.378Z,1.92
2022-09-02T17:50:56.866Z,2.25
2022-09-02T17:53:26.949Z,2.55
2022-09-02T17:56:04.613Z,2.50
2022-09-02T17:58:40.600Z,2.63
2022-09-02T18:01:15.098Z,2.65
2022-09-02T18:04:00.581Z,2.90
2022-09-02T18:06:38.008Z,2.55
2022-09-02T18:09:09.951Z,2.33
2022-09-02T18:11:40.456Z,2.80
2022-09-02T18:14:18.307Z,3.28
2022-09-02T18:17:00.914Z,2.95
2022-09-02T18:19:46.147Z,2.38
2022-09-02T18:22:35.912Z,3.20
2022-09-02T18:25:16.586Z,3.28
2022-09-02T18:27:55.938Z,2.97
2022-09-02T18:30:33.772Z,2.85
2022-09-02T18:33:25.078Z,2.97
2022-09-02T18:36:10.510Z,3.75
2022-09-02T18:38:48.308Z,3.35
2022-09-02T18:41:27.495Z,3.25
2022-09-02T18:44:09.364Z,3.33
2022-09-02T18:46:49.916Z,2.92
2022-09-02T18:49:21.404Z,3.40
2022-09-02T18:51:57.515Z,3.15
2022-09-02T18:54:29.008Z,2.67
2022-09-02T18:57:00.499Z,3.50
2022-09-02T18:59:35.658Z,3.42
2022-09-02T19:02:15.827Z,3.08
2022-09-02T19:04:45.212Z,2.88
2022-09-02T19:07:33.884Z,3.38
2022-09-02T19:10:04.156Z,3.53
2022-09-02T19:12:35.331Z,3.10
2022-09-02T19:15:07.768Z,2.65
2022-09-02T19:17:37.093Z,2.67
2022-09-02T19:20:07.278Z,2.78
2022-09-02T19:22:41.167Z,2.30
2022-09-02T19:25:13.819Z,3.13
2022-09-02T19:27:45.385Z,2.83
2022-09-02T19:30:19.141Z,3.20
2022-09-02T19:32:51.681Z,3.45
2022-09-02T19:35:24.106Z,7.57
2022-09-02T19:37:56.365Z,8.60
2022-09-02T19:40:29.174Z,6.53
2022-09-02T19:42:58.395Z,6.97
2022-09-02T19:45:29.733Z,7.00
2022-09-02T19:48:07.115Z,7.05
2022-09-02T19:50:38.760Z,6.40
2022-09-02T19:53:11.021Z,5.80
2022-09-02T19:55:40.260Z,4.90
2022-09-02T19:58:09.793Z,4.60
2022-09-02T20:00:42.624Z,4.93
2022-09-02T20:03:13.491Z,5.50
2022-09-02T20:05:42.943Z,4.67
2022-09-02T20:08:13.422Z,5.00
2022-09-02T20:10:42.536Z,5.30
2022-09-02T20:13:14.415Z,4.87
2022-09-02T20:15:43.446Z,5.23
2022-09-02T20:18:15.299Z,4.97
2022-09-02T20:20:45.502Z,4.53
2022-09-02T20:23:17.762Z,4.70
2022-09-02T20:25:58.312Z,4.40
2022-09-02T20:28:35.179Z,4.50
2022-09-02T20:31:10.667Z,4.93
2022-09-02T20:33:47.249Z,4.87
2022-09-02T20:36:23.217Z,5.27
2022-09-02T20:39:12.598Z,5.53
2022-09-02T20:41:50.626Z,5.27
2022-09-02T20:44:38.824Z,5.37
2022-09-02T20:47:31.988Z,5.47
2022-09-02T20:50:23.699Z,5.23
2022-09-02T20:53:02.917Z,5.70
2022-09-02T20:55:40.468Z,5.20
2022-09-02T20:58:19.667Z,5.40
2022-09-02T21:01:01.665Z,5.37
2022-09-02T21:03:40.373Z,6.63
2022-09-02T21:06:16.414Z,6.60
2022-09-02T21:08:59.037Z,5.33
2022-09-02T21:11:37.613Z,5.57
2022-09-02T21:14:11.586Z,5.37
2022-09-02T21:16:48.245Z,5.13
2022-09-02T21:19:24.777Z,5.20
2022-09-02T21:21:58.220Z,5.40
2022-09-02T21:24:34.298Z,5.57
2022-09-02T21:27:09.019Z,5.30
2022-09-02T21:29:43.861Z,5.33
2022-09-02T21:32:21.142Z,4.93
2022-09-02T21:34:55.800Z,5.20
2022-09-02T21:37:26.882Z,4.90
2022-09-02T21:40:02.383Z,4.73
2022-09-02T21:42:44.114Z,5.07
2022-09-02T21:45:22.758Z,4.87
2022-09-02T21:47:58.389Z,4.83
2022-09-02T21:50:37.583Z,4.73
2022-09-02T21:53:17.064Z,5.23
2022-09-02T21:55:59.557Z,4.80
2022-09-02T21:58:55.827Z,5.47
2022-09-02T22:01:44.320Z,5.93
2022-09-02T22:04:28.431Z,5.70
2022-09-02T22:07:07.608Z,5.37
2022-09-02T22:09:36.857Z,5.40
2022-09-02T22:12:11.328Z,4.43
2022-09-02T22:14:48.348Z,5.00
2022-09-02T22:17:25.185Z,4.77
2022-09-02T22:19:59.446Z,5.10
2022-09-02T22:22:31.758Z,4.87
2022-09-02T22:25:00.917Z,4.93
2022-09-02T22:27:36.498Z,5.73
2022-09-02T22:30:09.963Z,4.70
2022-09-02T22:32:42.568Z,4.87
2022-09-02T22:35:23.145Z,4.67
2022-09-02T22:37:59.703Z,4.23
2022-09-02T22:40:34.107Z,4.27
2022-09-02T22:43:07.809Z,3.90
2022-09-02T22:46:02.410Z,4.03
2022-09-02T22:48:54.931Z,3.60
2022-09-02T22:51:47.951Z,3.33
2022-09-02T22:54:17.717Z,3.90
2022-09-02T22:56:57.920Z,3.70
2022-09-02T22:59:37.151Z,3.30
2022-09-02T23:02:16.463Z,3.50
2022-09-02T23:05:04.097Z,3.67
2022-09-02T23:07:33.274Z,3.90
2022-09-02T23:10:03.517Z,3.87
2022-09-02T23:12:38.835Z,3.60
2022-09-02T23:15:24.946Z,3.57
2022-09-02T23:18:03.570Z,3.53
2022-09-02T23:20:44.767Z,3.60
2022-09-02T23:23:25.366Z,3.30
2022-09-02T23:26:10.033Z,3.90
2022-09-02T23:29:13.909Z,3.93
2022-09-02T23:32:05.829Z,3.87
2022-09-02T23:34:54.153Z,3.33
2022-09-02T23:37:35.178Z,3.43
2022-09-02T23:40:15.993Z,4.00
2022-09-02T23:42:45.083Z,3.60
2022-09-02T23:45:22.082Z,3.83
2022-09-02T23:48:15.352Z,3.90
2022-09-02T23:50:57.994Z,4.43
2022-09-02T23:53:32.629Z,5.00
2022-09-02T23:56:14.276Z,4.57
2022-09-02T23:59:01.307Z,3.93
